createdAt,value
2019-05-22T00:01:45.231Z,8.07
2019-05-22T00:04:24.054Z,9.07
2019-05-22T00:06:56.261Z,10.07
2019-05-22T00:09:37.641Z,10.40
2019-05-22T00:12:10.969Z,13.73
2019-05-22T00:14:40.493Z,8.67
2019-05-22T00:17:14.869Z,9.10
2019-05-22T00:19:44.134Z,8.77
2019-05-22T00:22:23.431Z,8.80
2019-05-22T00:24:54.329Z,9.03
2019-05-22T00:27:25.489Z,8.57
2019-05-22T00:29:55.993Z,9.43
2019-05-22T00:32:25.018Z,11.13
2019-05-22T00:35:13.957Z,11.70
2019-05-22T00:38:04.966Z,9.60
2019-05-22T00:40:53.148Z,9.47
2019-05-22T00:43:29.614Z,9.87
2019-05-22T00:45:58.099Z,11.63
2019-05-22T00:48:28.344Z,11.70
2019-05-22T00:51:09.402Z,12.57
2019-05-22T00:53:48.789Z,9.77
2019-05-22T00:56:33.040Z,11.40
2019-05-22T00:59:08.113Z,10.07
2019-05-22T01:01:44.764Z,8.83
2019-05-22T01:04:16.174Z,11.07
2019-05-22T01:06:48.164Z,10.53
2019-05-22T01:09:24.817Z,8.53
2019-05-22T01:11:55.179Z,8.73
2019-05-22T01:14:25.257Z,10.37
2019-05-22T01:16:56.222Z,11.47
2019-05-22T01:19:24.596Z,13.50
2019-05-22T01:21:54.931Z,10.57
2019-05-22T01:24:24.591Z,6.73
2019-05-22T01:26:54.376Z,9.63
2019-05-22T01:29:24.829Z,9.57
2019-05-22T01:31:59.696Z,10.70
2019-05-22T01:34:30.534Z,10.60
2019-05-22T01:37:07.034Z,12.70
2019-05-22T01:39:55.274Z,9.80
2019-05-22T01:42:33.356Z,12.37
2019-05-22T01:45:06.797Z,11.33
2019-05-22T01:47:52.851Z,14.80
2019-05-22T01:50:47.115Z,11.13
2019-05-22T01:53:20.093Z,13.30
2019-05-22T01:55:55.400Z,9.10
2019-05-22T01:58:24.114Z,11.97
2019-05-22T02:00:54.809Z,10.23
2019-05-22T02:03:24.774Z,12.50
2019-05-22T02:05:54.494Z,12.17
2019-05-22T02:08:24.874Z,15.10
2019-05-22T02:10:57.318Z,14.83
2019-05-22T02:13:35.133Z,13.97
2019-05-22T02:16:05.467Z,14.53
2019-05-22T02:18:35.753Z,14.10
2019-05-22T02:21:04.115Z,14.90
2019-05-22T02:23:33.310Z,19.90
2019-05-22T02:26:04.304Z,18.80
2019-05-22T02:28:33.234Z,14.93
2019-05-22T02:31:01.578Z,16.53
2019-05-22T02:33:31.751Z,14.97
2019-05-22T02:36:00.780Z,14.53
2019-05-22T02:38:31.028Z,14.93
2019-05-22T02:41:00.691Z,16.03
2019-05-22T02:43:30.330Z,15.73
2019-05-22T02:45:59.604Z,16.87
2019-05-22T02:48:29.328Z,17.20
2019-05-22T02:50:59.278Z,15.87
2019-05-22T02:53:29.116Z,16.50
2019-05-22T02:55:57.965Z,15.30
2019-05-22T02:58:28.111Z,14.20
2019-05-22T03:01:00.895Z,16.10
2019-05-22T03:03:31.676Z,18.13
2019-05-22T03:06:05.149Z,13.80
2019-05-22T03:09:15.620Z,19.30
2019-05-22T03:12:00.727Z,14.73
2019-05-22T03:14:30.297Z,13.67
2019-05-22T03:17:04.377Z,15.67
2019-05-22T03:23:43.431Z,16.07
2019-05-22T03:26:12.714Z,17.23
2019-05-22T03:28:43.268Z,20.07
2019-05-22T03:31:12.823Z,17.47
2019-05-22T03:33:41.782Z,16.93
2019-05-22T03:36:15.032Z,15.93
2019-05-22T03:38:44.862Z,15.30
2019-05-22T03:41:14.968Z,16.50
2019-05-22T03:43:47.823Z,17.07
2019-05-22T03:46:43.232Z,24.40
2019-05-22T03:49:28.893Z,21.10
2019-05-22T03:51:50.278Z,17.07
2019-05-22T03:54:21.312Z,17.60
2019-05-22T03:56:50.166Z,17.53
2019-05-22T03:59:20.790Z,13.23
2019-05-22T04:01:48.997Z,14.97
2019-05-22T04:04:36.178Z,15.73
2019-05-22T04:07:07.853Z,15.67
2019-05-22T04:09:39.686Z,15.53
2019-05-22T04:12:09.994Z,15.10
2019-05-22T04:14:39.581Z,18.47
2019-05-22T04:17:10.233Z,17.13
2019-05-22T04:19:49.379Z,18.17
2019-05-22T04:22:12.564Z,15.57
2019-05-22T04:24:41.617Z,14.37
2019-05-22T04:27:11.312Z,16.03
2019-05-22T04:29:40.677Z,17.53
2019-05-22T04:32:16.896Z,17.13
2019-05-22T04:34:46.981Z,17.37
2019-05-22T04:37:15.699Z,15.47
2019-05-22T04:39:48.018Z,14.33
2019-05-22T04:42:18.672Z,15.73
2019-05-22T04:45:21.010Z,17.23
2019-05-22T04:47:57.859Z,16.77
2019-05-22T04:50:27.064Z,17.80
2019-05-22T04:52:56.424Z,18.67
2019-05-22T04:55:26.538Z,16.70
2019-05-22T04:58:00.520Z,12.53
2019-05-22T05:00:29.570Z,14.13
2019-05-22T05:02:58.679Z,18.20
2019-05-22T05:05:31.557Z,16.00
2019-05-22T05:08:01.448Z,11.87
2019-05-22T05:10:30.215Z,15.77
2019-05-22T05:12:59.053Z,11.63
2019-05-22T05:15:27.385Z,15.17
2019-05-22T05:17:56.957Z,11.63
2019-05-22T05:20:25.492Z,12.20
2019-05-22T05:24:14.676Z,13.73
2019-05-22T05:26:44.261Z,12.37
2019-05-22T05:29:27.977Z,12.37
2019-05-22T05:31:58.464Z,11.40
2019-05-22T05:34:55.557Z,12.03
2019-05-22T05:37:25.774Z,9.60
2019-05-22T05:40:48.742Z,9.80
2019-05-22T05:43:18.823Z,10.70
2019-05-22T05:45:49.140Z,10.23
2019-05-22T05:48:23.280Z,9.73
2019-05-22T05:51:39.763Z,8.30
2019-05-22T05:54:13.789Z,8.77
2019-05-22T05:56:47.843Z,7.80
2019-05-22T05:59:18.346Z,9.83
2019-05-22T06:01:55.231Z,10.00
2019-05-22T06:04:36.000Z,6.50
2019-05-22T06:07:21.269Z,10.20
2019-05-22T06:10:48.069Z,7.33
2019-05-22T06:13:17.267Z,7.83
2019-05-22T06:16:53.466Z,8.07
2019-05-22T06:19:23.259Z,12.57
2019-05-22T06:21:51.945Z,8.57
2019-05-22T06:24:27.309Z,8.20
2019-05-22T06:27:19.479Z,8.57
2019-05-22T06:30:12.722Z,7.50
2019-05-22T06:33:42.502Z,7.57
2019-05-22T06:36:14.173Z,8.50
2019-05-22T06:39:14.767Z,5.23
2019-05-22T06:41:44.814Z,6.97
2019-05-22T06:44:33.209Z,6.10
2019-05-22T06:47:02.545Z,6.60
2019-05-22T06:49:57.901Z,6.30
2019-05-22T06:52:26.861Z,7.30
2019-05-22T06:54:56.567Z,9.77
2019-05-22T06:57:29.021Z,9.00
2019-05-22T07:00:13.251Z,4.43
2019-05-22T07:02:36.250Z,7.27
2019-05-22T07:05:06.416Z,5.87
2019-05-22T07:07:34.912Z,6.57
2019-05-22T07:10:06.196Z,6.03
2019-05-22T07:12:35.316Z,4.80
2019-05-22T07:15:47.206Z,5.27
2019-05-22T07:18:19.520Z,5.03
2019-05-22T07:20:49.345Z,7.87
2019-05-22T07:23:32.396Z,8.00
2019-05-22T07:26:03.013Z,8.93
2019-05-22T07:28:32.684Z,6.90
2019-05-22T07:31:02.201Z,8.33
2019-05-22T07:33:31.681Z,6.00
2019-05-22T07:36:17.084Z,10.23
2019-05-22T07:38:32.637Z,6.33
2019-05-22T07:41:01.639Z,5.53
2019-05-22T07:43:30.314Z,6.33
2019-05-22T07:45:59.067Z,9.03
2019-05-22T07:48:29.501Z,6.83
2019-05-22T07:50:58.447Z,7.37
2019-05-22T07:53:28.515Z,5.55
2019-05-22T07:56:00.129Z,6.80
2019-05-22T07:58:30.562Z,6.95
2019-05-22T08:01:01.603Z,5.55
2019-05-22T08:03:31.953Z,9.68
2019-05-22T08:06:00.900Z,8.78
2019-05-22T08:08:32.544Z,6.15
2019-05-22T08:11:01.362Z,7.23
2019-05-22T08:13:31.687Z,6.58
2019-05-22T08:16:00.291Z,8.38
2019-05-22T08:18:33.475Z,7.95
2019-05-22T08:21:02.204Z,7.97
2019-05-22T08:23:30.882Z,7.10
2019-05-22T08:25:59.801Z,6.20
2019-05-22T08:28:31.707Z,8.50
2019-05-22T08:31:01.777Z,5.65
2019-05-22T08:33:31.961Z,8.63
2019-05-22T08:36:01.567Z,7.83
2019-05-22T08:38:32.577Z,6.35
2019-05-22T08:41:07.893Z,8.78
2019-05-22T08:44:03.412Z,8.33
2019-05-22T08:46:10.905Z,9.05
2019-05-22T08:48:47.810Z,6.53
2019-05-22T08:51:13.879Z,6.80
2019-05-22T08:53:47.656Z,6.83
2019-05-22T08:56:14.327Z,5.58
2019-05-22T08:58:45.637Z,6.20
2019-05-22T09:01:14.489Z,7.20
2019-05-22T09:03:44.115Z,7.72
2019-05-22T09:06:12.741Z,6.12
2019-05-22T09:08:41.419Z,9.50
2019-05-22T09:11:10.626Z,5.77
2019-05-22T09:13:39.179Z,7.17
2019-05-22T09:16:09.358Z,7.33
2019-05-22T09:18:38.099Z,7.12
2019-05-22T09:21:07.262Z,7.30
2019-05-22T09:23:37.187Z,6.87
2019-05-22T09:26:06.526Z,6.05
2019-05-22T09:28:36.909Z,6.00
2019-05-22T09:31:05.688Z,8.80
2019-05-22T09:33:36.132Z,6.03
2019-05-22T09:36:05.119Z,6.97
2019-05-22T09:38:33.480Z,6.87
2019-05-22T09:41:02.132Z,7.40
2019-05-22T09:43:31.029Z,10.10
2019-05-22T09:46:00.125Z,5.22
2019-05-22T09:48:28.643Z,7.30
2019-05-22T09:50:57.906Z,7.03
2019-05-22T09:53:27.936Z,5.07
2019-05-22T09:55:56.794Z,7.73
2019-05-22T09:58:25.445Z,7.78
2019-05-22T10:00:53.817Z,9.48
2019-05-22T10:03:22.884Z,7.00
2019-05-22T10:06:04.038Z,6.00
2019-05-22T10:08:33.795Z,6.85
2019-05-22T10:11:02.144Z,7.85
2019-05-22T10:13:31.599Z,8.23
2019-05-22T10:16:00.984Z,8.30
2019-05-22T10:18:29.377Z,7.47
2019-05-22T10:20:59.069Z,8.05
2019-05-22T10:23:30.029Z,9.28
2019-05-22T10:25:58.839Z,6.97
2019-05-22T10:28:27.363Z,8.10
2019-05-22T10:30:57.367Z,6.55
2019-05-22T10:33:26.794Z,5.72
2019-05-22T10:35:55.816Z,7.03
2019-05-22T10:38:24.784Z,6.72
2019-05-22T10:40:53.113Z,6.97
2019-05-22T10:43:22.006Z,5.90
2019-05-22T10:45:50.607Z,6.03
2019-05-22T10:48:19.357Z,8.48
2019-05-22T10:50:49.044Z,9.03
2019-05-22T10:53:32.333Z,6.35
2019-05-22T10:55:48.823Z,9.33
2019-05-22T10:58:17.368Z,5.47
2019-05-22T11:00:45.971Z,6.28
2019-05-22T11:03:17.001Z,7.77
2019-05-22T11:05:46.279Z,8.00
2019-05-22T11:08:14.959Z,6.12
2019-05-22T11:10:45.509Z,10.50
2019-05-22T11:13:14.610Z,6.65
2019-05-22T11:15:43.515Z,5.33
2019-05-22T11:18:12.567Z,8.53
2019-05-22T11:20:41.870Z,7.35
2019-05-22T11:23:11.011Z,6.22
2019-05-22T11:25:40.357Z,5.33
2019-05-22T11:28:09.724Z,4.75
2019-05-22T11:30:38.662Z,5.87
2019-05-22T11:33:08.283Z,5.87
2019-05-22T11:35:37.162Z,5.47
2019-05-22T11:38:05.466Z,5.12
2019-05-22T11:40:34.299Z,7.78
2019-05-22T11:43:03.626Z,11.95
2019-05-22T11:45:32.247Z,10.90
2019-05-22T11:48:00.969Z,14.30
2019-05-22T11:50:30.690Z,13.10
2019-05-22T11:52:59.214Z,20.05
2019-05-22T11:55:42.634Z,4.53
2019-05-22T11:57:58.605Z,6.50
2019-05-22T12:00:27.218Z,3.35
2019-05-22T12:02:55.844Z,20.45
2019-05-22T12:05:24.981Z,6.08
2019-05-22T12:07:53.862Z,3.53
2019-05-22T12:10:23.628Z,7.40
2019-05-22T12:12:54.600Z,4.65
2019-05-22T12:15:28.847Z,5.80
2019-05-22T12:17:58.324Z,5.05
2019-05-22T12:20:28.577Z,4.05
2019-05-22T12:22:58.620Z,4.50
2019-05-22T12:25:28.139Z,5.87
2019-05-22T12:27:57.439Z,4.28
2019-05-22T12:30:28.529Z,3.75
2019-05-22T12:32:58.768Z,8.50
2019-05-22T12:35:27.835Z,3.35
2019-05-22T12:37:58.899Z,3.95
2019-05-22T12:40:33.222Z,4.28
2019-05-22T12:43:03.511Z,5.55
2019-05-22T12:45:33.833Z,5.47
2019-05-22T12:48:03.707Z,4.72
2019-05-22T12:50:33.226Z,3.55
2019-05-22T12:53:07.435Z,6.45
2019-05-22T12:55:36.576Z,26.10
2019-05-22T12:58:06.955Z,9.58
2019-05-22T13:00:35.813Z,2.17
2019-05-22T13:03:06.339Z,3.22
2019-05-22T13:05:37.139Z,12.98
2019-05-22T13:08:07.192Z,3.37
2019-05-22T13:10:37.563Z,6.00
2019-05-22T13:13:06.409Z,4.58
2019-05-22T13:15:38.200Z,4.85
2019-05-22T13:18:09.464Z,4.37
2019-05-22T13:20:44.365Z,5.90
2019-05-22T13:23:14.259Z,5.25
2019-05-22T13:25:49.077Z,5.70
2019-05-22T13:28:19.164Z,4.15
2019-05-22T13:30:54.484Z,8.08
2019-05-22T13:33:27.132Z,6.23
2019-05-22T13:35:56.037Z,7.60
2019-05-22T13:38:25.804Z,5.90
2019-05-22T13:40:55.647Z,6.37
2019-05-22T13:43:26.396Z,4.43
2019-05-22T13:45:55.346Z,4.85
2019-05-22T13:48:24.444Z,11.83
2019-05-22T13:50:54.079Z,6.47
2019-05-22T13:53:22.890Z,5.97
2019-05-22T13:55:51.903Z,9.50
2019-05-22T13:58:21.991Z,9.93
2019-05-22T14:00:51.024Z,7.17
2019-05-22T14:03:21.881Z,4.92
2019-05-22T14:05:50.811Z,5.78
2019-05-22T14:08:20.162Z,4.37
2019-05-22T14:10:50.336Z,5.62
2019-05-22T14:13:21.485Z,6.87
2019-05-22T14:15:56.166Z,4.12
2019-05-22T14:18:20.769Z,4.60
2019-05-22T14:20:49.640Z,4.17
2019-05-22T14:23:19.205Z,5.28
2019-05-22T14:25:50.212Z,6.17
2019-05-22T14:28:19.972Z,5.62
2019-05-22T14:30:49.181Z,6.33
2019-05-22T14:33:18.400Z,4.92
2019-05-22T14:35:50.427Z,5.23
2019-05-22T14:38:19.200Z,6.45
2019-05-22T14:40:47.693Z,5.37
2019-05-22T14:43:16.472Z,4.80
2019-05-22T14:45:46.082Z,4.42
2019-05-22T14:48:14.908Z,7.53
2019-05-22T14:50:44.043Z,4.87
2019-05-22T14:53:13.940Z,4.43
2019-05-22T14:55:44.123Z,5.87
2019-05-22T14:58:14.289Z,4.37
2019-05-22T15:00:43.842Z,3.27
2019-05-22T15:03:12.405Z,4.33
2019-05-22T15:05:41.012Z,3.80
2019-05-22T15:08:10.146Z,3.90
2019-05-22T15:10:39.608Z,4.83
2019-05-22T15:13:09.605Z,4.37
2019-05-22T15:15:41.044Z,5.20
2019-05-22T15:18:10.732Z,4.47
2019-05-22T15:20:46.314Z,5.87
2019-05-22T15:23:14.980Z,6.80
2019-05-22T15:25:44.247Z,6.80
2019-05-22T15:28:13.006Z,6.25
2019-05-22T15:30:42.270Z,5.70
2019-05-22T15:33:11.721Z,7.17
2019-05-22T15:35:41.424Z,4.90
2019-05-22T15:38:11.942Z,3.62
2019-05-22T15:40:40.489Z,4.62
2019-05-22T15:43:10.115Z,5.85
2019-05-22T15:45:41.357Z,5.70
2019-05-22T15:48:17.477Z,6.75
2019-05-22T15:50:47.442Z,7.17
2019-05-22T15:53:20.330Z,5.10
2019-05-22T15:55:52.639Z,6.65
2019-05-22T15:58:23.124Z,5.28
2019-05-22T16:00:54.483Z,6.45
2019-05-22T16:03:27.626Z,5.30
2019-05-22T16:05:58.552Z,7.97
2019-05-22T16:08:29.586Z,5.35
2019-05-22T16:11:00.645Z,8.28
2019-05-22T16:13:34.519Z,11.53
2019-05-22T16:16:05.817Z,5.67
2019-05-22T16:18:36.681Z,6.70
2019-05-22T16:21:12.053Z,6.78
2019-05-22T16:23:42.911Z,10.60
2019-05-22T16:26:14.163Z,9.53
2019-05-22T16:28:46.248Z,5.50
2019-05-22T16:31:17.569Z,8.33
2019-05-22T16:33:48.252Z,6.93
2019-05-22T16:36:19.445Z,7.13
2019-05-22T16:38:50.500Z,6.75
2019-05-22T16:41:21.922Z,6.53
2019-05-22T16:43:52.061Z,7.12
2019-05-22T16:46:23.557Z,5.60
2019-05-22T16:48:53.090Z,9.70
2019-05-22T16:51:24.954Z,7.43
2019-05-22T16:53:56.668Z,6.95
2019-05-22T16:56:27.045Z,10.57
2019-05-22T16:58:56.059Z,11.60
2019-05-22T17:01:26.642Z,5.87
2019-05-22T17:04:00.762Z,6.53
2019-05-22T17:06:29.532Z,7.67
2019-05-22T17:09:00.835Z,15.73
2019-05-22T17:11:31.531Z,9.30
2019-05-22T17:14:04.058Z,8.70
2019-05-22T17:16:36.512Z,7.90
2019-05-22T17:19:23.699Z,5.33
2019-05-22T17:21:37.314Z,9.50
2019-05-22T17:24:09.207Z,7.53
2019-05-22T17:26:38.486Z,5.00
2019-05-22T17:29:15.250Z,7.33
2019-05-22T17:31:43.932Z,6.30
2019-05-22T17:34:31.977Z,9.13
2019-05-22T17:37:05.711Z,6.97
2019-05-22T17:39:36.442Z,8.07
2019-05-22T17:42:09.223Z,4.77
2019-05-22T17:44:42.545Z,6.57
2019-05-22T17:47:13.021Z,7.77
2019-05-22T17:49:42.041Z,6.67
2019-05-22T17:52:12.238Z,7.97
2019-05-22T17:54:43.019Z,8.57
2019-05-22T17:57:14.783Z,7.03
2019-05-22T17:59:44.812Z,7.77
2019-05-22T18:02:15.219Z,8.73
2019-05-22T18:04:44.678Z,6.80
2019-05-22T18:07:15.934Z,7.87
2019-05-22T18:10:03.073Z,7.43
2019-05-22T18:12:31.651Z,14.63
2019-05-22T18:15:00.441Z,8.97
2019-05-22T18:17:29.069Z,8.17
2019-05-22T18:19:58.127Z,13.37
2019-05-22T18:22:26.505Z,6.63
2019-05-22T18:24:55.256Z,8.23
2019-05-22T18:27:25.383Z,7.10
2019-05-22T18:29:54.425Z,7.37
2019-05-22T18:32:23.322Z,6.50
2019-05-22T18:34:51.629Z,6.30
2019-05-22T18:37:22.634Z,8.03
2019-05-22T18:39:51.062Z,5.30
2019-05-22T18:42:22.000Z,6.23
2019-05-22T18:44:50.606Z,4.97
2019-05-22T18:47:20.746Z,4.43
2019-05-22T18:49:49.677Z,5.13
2019-05-22T18:52:18.704Z,4.70
2019-05-22T18:54:47.274Z,6.30
2019-05-22T18:57:16.892Z,7.07
2019-05-22T18:59:45.744Z,8.57
2019-05-22T19:02:16.937Z,8.50
2019-05-22T19:04:47.735Z,8.57
2019-05-22T19:07:16.334Z,10.07
2019-05-22T19:09:47.335Z,8.33
2019-05-22T19:12:17.962Z,7.53
2019-05-22T19:14:46.734Z,8.87
2019-05-22T19:17:18.283Z,5.73
2019-05-22T19:19:50.012Z,10.83
2019-05-22T19:22:39.180Z,9.93
2019-05-22T19:25:11.039Z,8.67
2019-05-22T19:27:41.834Z,6.23
2019-05-22T19:30:11.320Z,8.27
2019-05-22T19:32:40.102Z,7.33
2019-05-22T19:35:12.027Z,10.73
2019-05-22T19:37:40.855Z,11.57
2019-05-22T19:40:11.934Z,22.80
2019-05-22T19:42:41.035Z,50.87
2019-05-22T19:45:12.206Z,9.03
2019-05-22T19:47:49.946Z,15.17
2019-05-22T19:50:23.144Z,14.20
2019-05-22T19:52:55.279Z,14.23
2019-05-22T19:55:27.069Z,13.63
2019-05-22T19:57:55.854Z,7.60
2019-05-22T20:00:27.409Z,7.37
2019-05-22T20:02:57.624Z,9.90
2019-05-22T20:05:26.669Z,9.50
2019-05-22T20:07:56.190Z,7.30
2019-05-22T20:10:25.246Z,7.50
2019-05-22T20:12:55.818Z,7.20
2019-05-22T20:15:24.423Z,9.90
2019-05-22T20:18:12.792Z,8.33
2019-05-22T20:20:44.412Z,9.07
2019-05-22T20:23:13.659Z,7.90
2019-05-22T20:25:43.088Z,8.97
2019-05-22T20:28:11.969Z,8.43
2019-05-22T20:30:41.966Z,8.77
2019-05-22T20:33:11.180Z,10.77
2019-05-22T20:35:40.706Z,7.50
2019-05-22T20:38:11.683Z,9.40
2019-05-22T20:40:43.502Z,10.73
2019-05-22T20:43:12.934Z,9.40
2019-05-22T20:45:45.128Z,9.10
2019-05-22T20:48:29.817Z,8.47
2019-05-22T20:51:00.801Z,9.60
2019-05-22T20:53:32.338Z,8.83
2019-05-22T20:56:01.300Z,8.30
2019-05-22T20:58:33.412Z,11.13
2019-05-22T21:01:04.596Z,11.67
2019-05-22T21:03:33.567Z,9.00
2019-05-22T21:06:06.485Z,9.03
2019-05-22T21:08:37.833Z,11.53
2019-05-22T21:11:09.229Z,11.23
2019-05-22T21:13:39.784Z,8.73
2019-05-22T21:16:08.772Z,10.40
2019-05-22T21:18:41.878Z,10.33
2019-05-22T21:21:11.683Z,11.70
2019-05-22T21:23:41.411Z,8.67
2019-05-22T21:26:11.254Z,10.30
2019-05-22T21:28:41.060Z,13.37
2019-05-22T21:31:09.915Z,10.87
2019-05-22T21:33:39.023Z,12.37
2019-05-22T21:36:10.362Z,8.70
2019-05-22T21:38:40.541Z,12.60
2019-05-22T21:41:09.524Z,11.30
2019-05-22T21:43:38.764Z,14.97
2019-05-22T21:46:08.702Z,14.13
2019-05-22T21:48:38.849Z,9.90
2019-05-22T21:51:08.254Z,14.53
2019-05-22T21:53:37.342Z,14.20
2019-05-22T21:56:06.361Z,14.57
2019-05-22T21:58:36.629Z,14.60
2019-05-22T22:01:23.789Z,13.23
2019-05-22T22:03:58.476Z,15.30
2019-05-22T22:06:27.806Z,17.10
2019-05-22T22:08:58.544Z,14.73
2019-05-22T22:11:29.579Z,14.10
2019-05-22T22:13:58.883Z,14.30
2019-05-22T22:16:28.729Z,15.60
2019-05-22T22:18:57.482Z,15.13
2019-05-22T22:21:26.417Z,16.47
2019-05-22T22:23:54.909Z,14.73
2019-05-22T22:26:25.955Z,20.27
2019-05-22T22:28:55.517Z,13.33
2019-05-22T22:31:26.570Z,13.43
2019-05-22T22:34:06.683Z,14.03
2019-05-22T22:36:36.434Z,15.23
2019-05-22T22:39:10.732Z,12.00
2019-05-22T22:41:43.279Z,13.23
2019-05-22T22:44:12.871Z,16.77
2019-05-22T22:46:54.455Z,15.50
2019-05-22T22:49:27.071Z,16.67
2019-05-22T22:51:57.070Z,15.60
2019-05-22T22:54:27.437Z,15.33
2019-05-22T22:56:56.856Z,13.63
2019-05-22T22:59:26.447Z,13.53
2019-05-22T23:02:00.662Z,14.43
2019-05-22T23:04:30.264Z,14.97
2019-05-22T23:07:07.114Z,15.20
2019-05-22T23:09:39.761Z,17.63
2019-05-22T23:12:09.315Z,17.17
2019-05-22T23:14:44.865Z,17.37
2019-05-22T23:17:14.019Z,21.17
2019-05-22T23:19:45.251Z,16.67
2019-05-22T23:22:21.306Z,18.27
2019-05-22T23:24:53.158Z,17.93
2019-05-22T23:27:23.171Z,18.13
2019-05-22T23:29:51.624Z,13.97
2019-05-22T23:32:22.224Z,14.90
2019-05-22T23:34:51.674Z,23.50
2019-05-22T23:37:21.716Z,19.90
2019-05-22T23:39:53.124Z,18.57
2019-05-22T23:42:30.744Z,21.00
2019-05-22T23:45:06.216Z,20.87
2019-05-22T23:47:50.396Z,21.40
2019-05-22T23:50:20.199Z,17.80
2019-05-22T23:52:48.983Z,17.90
2019-05-22T23:55:18.177Z,16.47
2019-05-22T23:57:49.545Z,15.93
